Time;durP1;ratioP1;P1;durP2;ratioP2;P2;SDS_P1;SDS_P2;PMS_P1;PMS_P2;Temp;Humidity;BMP_temperature;BMP_pressure;BME280_temperature;BME280_humidity;BME280_pressure;Samples;Min_cycle;Max_cycle;Signal;HPM_P1;HPM_P2
2022/11/07 00:00:13;;;;;;;3.10;2.50;;;;;;;7.60;100.00;96743.31;5075012;28;21306;-59
2022/11/07 00:02:39;;;;;;;2.70;2.60;;;;;;;7.61;100.00;96743.22;5071315;28;20289;-59
2022/11/07 00:05:07;;;;;;;2.87;2.67;;;;;;;7.56;100.00;96742.75;5071833;28;20285;-60
2022/11/07 00:07:34;;;;;;;2.80;2.47;;;;;;;7.51;100.00;96737.00;5071689;28;20282;-59
2022/11/07 00:10:00;;;;;;;3.30;2.90;;;;;;;7.53;100.00;96732.47;5083619;28;20241;-60
2022/11/07 00:12:27;;;;;;;2.43;2.30;;;;;;;7.51;100.00;96732.56;5087358;28;20253;-59
2022/11/07 00:14:55;;;;;;;3.40;2.77;;;;;;;7.56;100.00;96726.09;5087352;28;20256;-59
2022/11/07 00:17:21;;;;;;;3.20;2.90;;;;;;;7.60;100.00;96722.28;5087800;28;20195;-59
2022/11/07 00:19:48;;;;;;;3.20;2.90;;;;;;;7.65;100.00;96725.38;5088679;28;20655;-59
2022/11/07 00:22:15;;;;;;;3.00;2.80;;;;;;;7.72;100.00;96731.84;5085400;28;20199;-59
2022/11/07 00:24:41;;;;;;;2.80;2.60;;;;;;;7.74;100.00;96738.63;5081378;28;20240;-59
2022/11/07 00:27:08;;;;;;;3.47;2.87;;;;;;;7.77;100.00;96727.84;5082654;28;20277;-59
2022/11/07 00:29:35;;;;;;;2.83;2.60;;;;;;;7.77;100.00;96738.38;5081675;28;20244;-59
2022/11/07 00:32:03;;;;;;;3.33;3.03;;;;;;;7.76;100.00;96747.22;5083331;28;20722;-59
2022/11/07 00:34:29;;;;;;;5.63;3.23;;;;;;;7.76;100.00;96744.59;5080283;28;20352;-60
2022/11/07 00:36:56;;;;;;;3.10;2.90;;;;;;;7.77;100.00;96743.66;5075034;28;20210;-59
2022/11/07 00:39:23;;;;;;;4.40;3.87;;;;;;;7.77;100.00;96756.81;5075055;28;20303;-59
2022/11/07 00:41:49;;;;;;;3.60;3.30;;;;;;;7.81;100.00;96750.34;5074975;28;20244;-58
2022/11/07 00:44:16;;;;;;;4.67;4.07;;;;;;;7.84;100.00;96742.19;5074289;28;20293;-59
2022/11/07 00:46:43;;;;;;;4.77;3.50;;;;;;;7.83;100.00;96748.41;5075088;28;20271;-59
2022/11/07 00:49:11;;;;;;;4.53;3.97;;;;;;;7.90;100.00;96751.41;5074901;28;20326;-59
2022/11/07 00:51:38;;;;;;;4.40;3.70;;;;;;;7.92;100.00;96745.06;5073978;28;20213;-59
2022/11/07 00:54:05;;;;;;;3.57;3.27;;;;;;;7.95;100.00;96754.50;5074354;28;20730;-59
2022/11/07 00:56:33;;;;;;;3.47;3.27;;;;;;;7.98;100.00;96747.19;5074392;28;20289;-58
2022/11/07 00:59:00;;;;;;;3.87;3.50;;;;;;;8.04;100.00;96753.75;5074141;28;20289;-58
2022/11/07 01:01:29;;;;;;;3.23;3.03;;;;;;;8.08;100.00;96751.72;5074080;28;20210;-59
2022/11/07 01:06:43;;;;;;;3.87;3.40;;;;;;;8.17;100.00;96757.06;5076897;28;20331;-59
2022/11/07 01:09:11;;;;;;;3.40;3.10;;;;;;;8.17;100.00;96770.22;5079720;28;20242;-59
2022/11/07 01:11:39;;;;;;;4.57;3.37;;;;;;;8.21;100.00;96765.56;5075471;28;20252;-60
2022/11/07 01:14:06;;;;;;;4.10;3.80;;;;;;;8.23;100.00;96763.63;5074197;28;20230;-58
2022/11/07 01:16:34;;;;;;;4.00;3.70;;;;;;;8.30;100.00;96772.72;5073861;28;20308;-59
2022/11/07 01:19:01;;;;;;;5.07;3.90;;;;;;;8.32;100.00;96769.03;5074333;28;20234;-60
2022/11/07 01:21:28;;;;;;;4.33;3.93;;;;;;;8.31;100.00;96758.59;5073736;28;20214;-59
2022/11/07 01:23:56;;;;;;;5.10;4.60;;;;;;;8.33;100.00;96760.13;5074422;28;20202;-59
2022/11/07 01:26:22;;;;;;;4.83;4.33;;;;;;;8.29;100.00;96760.53;5073989;28;20590;-59
2022/11/07 01:28:49;;;;;;;4.10;3.70;;;;;;;8.28;100.00;96750.91;5073364;28;20363;-59
2022/11/07 01:31:17;;;;;;;4.87;4.37;;;;;;;8.28;100.00;96756.19;5073316;28;20724;-58
2022/11/07 01:33:43;;;;;;;5.63;4.47;;;;;;;8.31;100.00;96761.22;5073629;28;20301;-59
2022/11/07 01:36:12;;;;;;;5.47;4.60;;;;;;;8.30;100.00;96764.81;5074133;28;20238;-59
2022/11/07 01:38:40;;;;;;;5.97;3.83;;;;;;;8.24;100.00;96749.50;5073750;28;20293;-59
2022/11/07 01:41:23;;;;;;;4.20;3.80;;;;;;;8.23;100.00;96751.28;5073160;28;20281;-59
2022/11/07 01:43:54;;;;;;;4.30;3.27;;;;;;;8.23;100.00;96759.19;5072766;28;20194;-59
2022/11/07 01:46:23;;;;;;;3.77;3.27;;;;;;;8.23;100.00;96761.81;5073714;28;20195;-59
2022/11/07 01:48:52;;;;;;;3.47;3.10;;;;;;;8.15;100.00;96750.25;5073193;28;20714;-59
2022/11/07 01:51:20;;;;;;;3.13;2.90;;;;;;;8.12;100.00;96745.22;5073034;28;20218;-59
2022/11/07 01:53:46;;;;;;;2.67;2.47;;;;;;;8.11;100.00;96754.09;5073022;28;20265;-59
2022/11/07 01:56:16;;;;;;;2.90;2.70;;;;;;;8.09;100.00;96748.94;5073877;28;20325;-58
2022/11/07 01:58:45;;;;;;;4.13;2.23;;;;;;;8.13;100.00;96739.00;5073195;28;20230;-58
2022/11/07 02:01:12;;;;;;;2.63;2.43;;;;;;;8.10;100.00;96740.09;5072399;28;20642;-59
2022/11/07 02:03:39;;;;;;;3.03;2.47;;;;;;;8.07;100.00;96742.97;5073184;28;21474;-59
2022/11/07 02:06:09;;;;;;;2.33;2.13;;;;;;;8.01;100.00;96727.66;5073395;28;20297;-59
2022/11/07 02:08:37;;;;;;;2.40;2.20;;;;;;;7.93;100.00;96730.09;5073373;28;20218;-60
2022/11/07 02:11:04;;;;;;;2.53;2.33;;;;;;;7.87;100.00;96735.84;5072658;28;20345;-59
2022/11/07 02:13:33;;;;;;;3.40;2.50;;;;;;;7.86;100.00;96736.81;5074407;28;20222;-60
2022/11/07 02:16:02;;;;;;;3.43;3.10;;;;;;;7.89;100.00;96737.41;5073627;28;20296;-59
2022/11/07 02:18:29;;;;;;;3.27;2.97;;;;;;;7.83;100.00;96743.16;5073372;28;20293;-59
2022/11/07 02:20:56;;;;;;;3.33;3.03;;;;;;;7.77;100.00;96735.75;5072377;28;20718;-59
2022/11/07 02:23:27;;;;;;;2.87;2.67;;;;;;;7.79;100.00;96736.50;5072121;28;20226;-59
2022/11/07 02:25:55;;;;;;;2.40;2.20;;;;;;;7.74;100.00;96733.38;5073268;28;20260;-59
2022/11/07 02:28:22;;;;;;;2.33;2.23;;;;;;;7.83;100.00;96743.16;5073088;28;20233;-59
2022/11/07 02:30:49;;;;;;;2.80;2.40;;;;;;;7.75;100.00;96740.31;5072082;28;20206;-59
2022/11/07 02:33:19;;;;;;;2.70;2.27;;;;;;;7.66;100.00;96732.31;5072247;28;20226;-60
2022/11/07 02:35:48;;;;;;;2.60;2.40;;;;;;;7.70;100.00;96731.94;5072346;28;20293;-59
2022/11/07 02:38:17;;;;;;;2.20;2.10;;;;;;;7.67;100.00;96723.47;5070272;28;20447;-59
2022/11/07 02:40:46;;;;;;;2.67;2.10;;;;;;;7.65;100.00;96723.56;5071571;28;20252;-59
2022/11/07 02:43:16;;;;;;;1.93;1.83;;;;;;;7.60;100.00;96717.84;5071959;28;20661;-59
2022/11/07 02:45:44;;;;;;;2.20;2.10;;;;;;;7.61;100.00;96722.16;5072012;28;20209;-59
2022/11/07 02:48:11;;;;;;;2.10;2.00;;;;;;;7.58;100.00;96725.03;5072158;28;20546;-59
2022/11/07 02:50:38;;;;;;;2.47;2.27;;;;;;;7.53;100.00;96721.09;5071644;28;20272;-59
2022/11/07 02:53:05;;;;;;;2.00;1.90;;;;;;;7.53;100.00;96727.19;5072382;28;20292;-59
2022/11/07 02:55:33;;;;;;;2.27;2.07;;;;;;;7.54;100.00;96717.50;5071846;28;20298;-59
2022/11/07 02:58:00;;;;;;;3.03;2.07;;;;;;;7.51;100.00;96718.56;5072041;28;20682;-59
2022/11/07 03:00:28;;;;;;;2.00;1.80;;;;;;;7.54;100.00;96710.47;5071968;28;20293;-59
2022/11/07 03:02:55;;;;;;;2.27;2.07;;;;;;;7.53;100.00;96708.78;5072119;28;20453;-59
2022/11/07 03:05:21;;;;;;;1.80;1.70;;;;;;;7.54;100.00;96717.50;5071960;28;20337;-59
2022/11/07 03:07:49;;;;;;;2.20;1.80;;;;;;;7.55;100.00;96720.00;5070715;28;20623;-59
2022/11/07 03:10:17;;;;;;;3.20;1.80;;;;;;;7.54;100.00;96718.34;5071771;28;20546;-58
2022/11/07 03:12:44;;;;;;;3.47;1.93;;;;;;;7.55;100.00;96725.28;5071775;28;20690;-59
2022/11/07 03:15:11;;;;;;;3.00;1.90;;;;;;;7.53;100.00;96724.56;5071804;28;20205;-59
2022/11/07 03:17:40;;;;;;;1.80;1.70;;;;;;;7.51;100.00;96729.09;5071557;28;20213;-59
2022/11/07 03:20:08;;;;;;;2.07;1.87;;;;;;;7.47;100.00;96723.25;5071577;28;20798;-59
2022/11/07 03:22:35;;;;;;;2.77;1.63;;;;;;;7.43;100.00;96739.41;5071111;28;20214;-58
2022/11/07 03:25:02;;;;;;;1.90;1.80;;;;;;;7.46;100.00;96733.91;5071899;28;20302;-58
2022/11/07 03:27:29;;;;;;;1.87;1.77;;;;;;;7.46;100.00;96736.53;5071242;28;20337;-59
2022/11/07 03:29:55;;;;;;;2.00;1.90;;;;;;;7.36;100.00;96736.44;5072657;28;20234;-59
2022/11/07 03:32:22;;;;;;;2.03;1.63;;;;;;;7.37;100.00;96737.25;5074098;28;20587;-59
2022/11/07 03:34:50;;;;;;;2.30;2.13;;;;;;;7.36;100.00;96739.06;5076852;28;20689;-58
2022/11/07 03:37:18;;;;;;;1.93;1.83;;;;;;;7.30;100.00;96742.16;5074198;28;20329;-59
2022/11/07 03:39:44;;;;;;;2.03;1.80;;;;;;;7.24;100.00;96749.69;5070987;28;20297;-59
2022/11/07 03:42:11;;;;;;;2.43;2.10;;;;;;;7.15;100.00;96745.16;5070818;28;20329;-59
2022/11/07 03:44:38;;;;;;;2.13;1.77;;;;;;;7.17;100.00;96759.88;5070809;28;20711;-59
2022/11/07 03:47:04;;;;;;;1.90;1.80;;;;;;;7.09;100.00;96756.13;5071386;28;20290;-59
2022/11/07 03:49:31;;;;;;;3.43;2.07;;;;;;;7.06;100.00;96754.59;5070677;28;20688;-59
2022/11/07 03:51:59;;;;;;;2.23;2.03;;;;;;;7.03;100.00;96764.50;5070814;28;20234;-59
2022/11/07 03:54:26;;;;;;;2.27;2.17;;;;;;;6.94;100.00;96756.38;5070453;28;20311;-59
2022/11/07 03:56:53;;;;;;;2.23;2.03;;;;;;;6.91;100.00;96761.88;5071496;28;20222;-59
2022/11/07 03:59:19;;;;;;;1.87;1.77;;;;;;;6.85;100.00;96761.50;5070772;28;20233;-59
2022/11/07 04:01:46;;;;;;;2.00;1.77;;;;;;;6.82;100.00;96761.75;5070277;28;20281;-59
2022/11/07 04:04:13;;;;;;;3.10;2.00;;;;;;;6.86;100.00;96761.41;5071030;28;20277;-59
2022/11/07 04:06:39;;;;;;;2.10;1.97;;;;;;;6.90;100.00;96754.97;5070079;28;20202;-59
2022/11/07 04:09:07;;;;;;;2.90;1.60;;;;;;;6.86;100.00;96753.50;5070834;28;20285;-59
2022/11/07 04:17:20;;;;;;;2.37;1.87;;;;;;;6.81;100.00;96776.69;5070684;28;20214;-59
2022/11/07 04:19:48;;;;;;;4.33;2.00;;;;;;;6.77;100.00;96782.28;5070385;28;20232;-59
2022/11/07 04:22:15;;;;;;;1.97;1.83;;;;;;;6.81;100.00;96781.09;5071185;28;20287;-59
2022/11/07 04:24:43;;;;;;;3.53;1.97;;;;;;;6.74;100.00;96783.34;5070432;28;20285;-59
2022/11/07 04:29:55;;;;;;;2.17;1.97;;;;;;;6.73;100.00;96794.81;5070209;28;20206;-59
2022/11/07 04:32:22;;;;;;;1.73;1.63;;;;;;;6.73;100.00;96794.81;5070547;28;20206;-59
2022/11/07 04:34:48;;;;;;;2.10;1.90;;;;;;;6.75;100.00;96792.91;5070737;28;20226;-59
2022/11/07 04:37:15;;;;;;;2.00;1.90;;;;;;;6.75;100.00;96799.97;5071221;28;20294;-59
2022/11/07 04:39:43;;;;;;;2.50;2.30;;;;;;;6.63;100.00;96793.81;5072908;28;20202;-59
2022/11/07 04:42:12;;;;;;;2.97;2.13;;;;;;;6.60;100.00;96794.06;5081802;28;20198;-59
2022/11/07 04:44:38;;;;;;;2.17;1.97;;;;;;;6.63;100.00;96796.47;5082204;28;20205;-59
2022/11/07 04:47:05;;;;;;;4.50;2.20;;;;;;;6.61;100.00;96795.75;5076794;28;20243;-59
2022/11/07 04:49:32;;;;;;;1.97;1.80;;;;;;;6.55;100.00;96792.75;5070159;28;20405;-59
2022/11/07 04:51:58;;;;;;;3.03;1.97;;;;;;;6.48;100.00;96797.63;5071044;28;20305;-58
2022/11/07 04:54:25;;;;;;;2.37;2.00;;;;;;;6.47;100.00;96785.44;5070618;28;20309;-59
2022/11/07 04:56:53;;;;;;;2.03;1.93;;;;;;;6.53;100.00;96787.59;5070430;28;20222;-59
2022/11/07 04:59:20;;;;;;;1.87;1.77;;;;;;;6.51;100.00;96800.03;5070855;28;20256;-59
2022/11/07 05:01:46;;;;;;;2.10;2.00;;;;;;;6.51;100.00;96786.88;5070854;28;20214;-59
2022/11/07 05:04:13;;;;;;;2.63;2.20;;;;;;;6.45;100.00;96795.19;5071297;28;20214;-59
2022/11/07 05:06:39;;;;;;;2.40;2.20;;;;;;;6.46;100.00;96796.88;5071059;28;20329;-59
2022/11/07 05:09:08;;;;;;;2.60;2.00;;;;;;;6.42;100.00;96795.44;5070253;28;20309;-59
2022/11/07 05:11:35;;;;;;;2.20;2.10;;;;;;;6.39;100.00;96791.25;5070449;28;20587;-59
2022/11/07 05:14:03;;;;;;;2.50;2.30;;;;;;;6.34;100.00;96795.19;5070645;28;20693;-58
2022/11/07 05:16:31;;;;;;;2.00;1.90;;;;;;;6.31;100.00;96800.63;5070790;28;20253;-59
2022/11/07 05:18:57;;;;;;;2.50;2.30;;;;;;;6.30;100.00;96796.34;5073910;28;20603;-59
2022/11/07 05:21:24;;;;;;;2.37;2.13;;;;;;;6.27;100.00;96805.28;5074483;28;20217;-59
2022/11/07 05:23:51;;;;;;;1.80;1.70;;;;;;;6.25;100.00;96801.09;5075841;28;20218;-59
2022/11/07 05:26:18;;;;;;;4.53;2.20;;;;;;;6.29;100.00;96805.19;5076681;28;20708;-59
2022/11/07 05:28:44;;;;;;;2.90;1.63;;;;;;;6.27;100.00;96797.41;5077211;28;20245;-60
2022/11/07 05:31:15;;;;;;;3.53;2.47;;;;;;;6.28;100.00;96803.50;5076824;28;20653;-60
2022/11/07 05:33:42;;;;;;;2.87;2.60;;;;;;;6.25;100.00;96798.47;5077246;28;20342;-60
2022/11/07 05:36:14;;;;;;;2.30;2.10;;;;;;;6.23;100.00;96803.00;5077410;28;20337;-59
2022/11/07 05:38:42;;;;;;;2.53;2.20;;;;;;;6.25;100.00;96807.19;5076339;28;20226;-60
2022/11/07 05:41:08;;;;;;;2.40;2.20;;;;;;;6.27;100.00;96801.84;5075300;28;21320;-60
2022/11/07 05:43:36;;;;;;;4.23;2.60;;;;;;;6.23;100.00;96806.47;5074337;28;20662;-59
2022/11/07 05:46:03;;;;;;;2.27;2.17;;;;;;;6.24;100.00;96812.53;5073538;28;20230;-59
2022/11/07 05:48:31;;;;;;;4.13;2.60;;;;;;;6.24;100.00;96820.41;5073417;28;20210;-60
2022/11/07 05:50:58;;;;;;;2.17;2.03;;;;;;;6.29;100.00;96820.94;5073012;28;20234;-59
2022/11/07 05:53:25;;;;;;;3.53;2.27;;;;;;;6.31;100.00;96814.63;5072567;28;20306;-59
2022/11/07 05:55:52;;;;;;;3.50;2.40;;;;;;;6.28;100.00;96814.84;5073368;28;20381;-59
2022/11/07 05:58:19;;;;;;;2.50;2.30;;;;;;;6.28;100.00;96814.00;5079551;28;20687;-59
2022/11/07 06:00:47;;;;;;;4.70;2.30;;;;;;;6.29;100.00;96816.53;5079576;28;20202;-56
2022/11/07 06:03:13;;;;;;;3.87;2.70;;;;;;;6.26;100.00;96818.53;5078400;28;20241;-56
2022/11/07 06:05:42;;;;;;;2.40;2.20;;;;;;;6.20;100.00;96809.31;5074153;28;20195;-57
2022/11/07 06:08:11;;;;;;;2.67;2.47;;;;;;;6.30;100.00;96812.97;5072625;28;20261;-60
2022/11/07 06:10:38;;;;;;;3.13;2.20;;;;;;;6.27;100.00;96817.59;5072619;28;20218;-59
2022/11/07 06:13:06;;;;;;;2.90;2.60;;;;;;;6.26;100.00;96811.50;5073526;28;20256;-58
2022/11/07 06:15:35;;;;;;;2.67;2.47;;;;;;;6.27;100.00;96813.16;5072254;28;20313;-58
2022/11/07 06:18:02;;;;;;;2.60;2.40;;;;;;;6.28;100.00;96814.00;5073030;28;20226;-58
2022/11/07 06:20:29;;;;;;;4.23;2.70;;;;;;;6.29;100.00;96813.06;5072637;28;20334;-58
2022/11/07 06:22:58;;;;;;;2.57;2.20;;;;;;;6.34;100.00;96819.63;5073095;28;20217;-59
2022/11/07 06:25:25;;;;;;;3.73;2.17;;;;;;;6.32;100.00;96825.97;5073113;28;20646;-58
2022/11/07 06:27:52;;;;;;;2.63;2.43;;;;;;;6.37;100.00;96826.47;5073688;28;20195;-58
2022/11/07 06:30:19;;;;;;;2.87;2.63;;;;;;;6.42;100.00;96829.59;5072037;28;20428;-65
2022/11/07 06:32:45;;;;;;;2.63;2.43;;;;;;;6.44;100.00;96835.56;5073133;28;20356;-60
2022/11/07 06:35:12;;;;;;;2.30;2.10;;;;;;;6.43;100.00;96828.63;5074597;28;20253;-59
2022/11/07 06:37:39;;;;;;;2.80;2.60;;;;;;;6.38;100.00;96836.00;5070553;28;20244;-59
2022/11/07 06:40:09;;;;;;;3.50;2.10;;;;;;;6.36;100.00;96835.28;5072450;28;20202;-60
2022/11/07 06:42:35;;;;;;;2.73;2.53;;;;;;;6.34;100.00;96838.03;5072896;28;20206;-60
2022/11/07 06:45:02;;;;;;;2.53;2.23;;;;;;;6.34;100.00;96837.22;5081319;28;20198;-60
2022/11/07 06:47:28;;;;;;;2.77;2.57;;;;;;;6.41;100.00;96846.31;5086318;28;20252;-60
2022/11/07 06:49:55;;;;;;;3.23;2.10;;;;;;;6.38;100.00;96851.75;5072401;28;20344;-59
2022/11/07 06:52:22;;;;;;;3.93;2.33;;;;;;;6.40;100.00;96855.13;5072543;28;20293;-59
2022/11/07 06:54:48;;;;;;;2.60;2.40;;;;;;;6.45;100.00;96863.50;5072560;28;20767;-60
2022/11/07 06:57:16;;;;;;;2.67;2.47;;;;;;;6.43;100.00;96862.78;5072700;28;20214;-60
2022/11/07 06:59:43;;;;;;;2.77;2.63;;;;;;;6.45;100.00;96856.47;5072219;28;20289;-60
2022/11/07 07:02:11;;;;;;;3.83;2.53;;;;;;;6.50;100.00;96866.63;5072585;28;20698;-60
2022/11/07 07:04:38;;;;;;;2.97;2.70;;;;;;;6.56;100.00;96875.84;5072678;28;20711;-60
2022/11/07 07:07:05;;;;;;;3.20;3.00;;;;;;;6.59;100.00;96880.91;5072594;28;20344;-60
2022/11/07 07:09:32;;;;;;;3.60;2.67;;;;;;;6.61;100.00;96877.19;5072681;28;21030;-59
2022/11/07 07:11:58;;;;;;;3.00;2.80;;;;;;;6.61;100.00;96879.00;5073420;28;20206;-59
2022/11/07 07:14:26;;;;;;;3.90;2.67;;;;;;;6.59;100.00;96886.97;5073936;28;20318;-59
2022/11/07 07:16:53;;;;;;;3.00;2.80;;;;;;;6.71;100.00;96890.50;5073814;28;20284;-60
2022/11/07 07:19:19;;;;;;;3.20;2.97;;;;;;;6.73;100.00;96886.78;5073061;28;20699;-61
2022/11/07 07:21:46;;;;;;;3.07;2.83;;;;;;;6.74;100.00;96891.09;5072535;28;20289;-60
2022/11/07 07:24:14;;;;;;;4.43;3.30;;;;;;;6.76;100.00;96893.63;5072632;28;20194;-60
2022/11/07 07:26:41;;;;;;;3.33;3.13;;;;;;;6.78;100.00;96887.31;5071998;28;20237;-60
2022/11/07 07:29:07;;;;;;;3.60;3.30;;;;;;;6.93;100.00;96901.09;5072474;28;20195;-59
2022/11/07 07:31:35;;;;;;;3.53;3.23;;;;;;;6.98;100.00;96898.94;5071460;28;20226;-59
2022/11/07 07:34:02;;;;;;;3.57;3.27;;;;;;;7.05;100.00;96904.63;5072088;28;20336;-59
2022/11/07 07:36:28;;;;;;;5.60;5.10;;;;;;;7.04;100.00;96902.91;5071691;28;20742;-59
2022/11/07 07:38:55;;;;;;;5.23;4.73;;;;;;;7.05;100.00;96908.06;5072015;28;20297;-59
2022/11/07 07:41:21;;;;;;;5.00;4.23;;;;;;;7.14;100.00;96903.91;5070880;28;20592;-59
2022/11/07 07:43:48;;;;;;;5.43;4.30;;;;;;;7.18;100.00;96908.81;5071860;28;20281;-60
2022/11/07 07:46:16;;;;;;;4.00;3.70;;;;;;;7.24;100.00;96910.16;5071156;28;20270;-60
2022/11/07 07:48:44;;;;;;;7.67;4.07;;;;;;;7.29;100.00;96908.00;5071339;28;20589;-59
2022/11/07 07:51:11;;;;;;;8.27;3.80;;;;;;;7.34;100.00;96906.69;5070722;28;20282;-59
2022/11/07 07:53:37;;;;;;;4.60;3.80;;;;;;;7.39;100.00;96903.72;5070966;28;20234;-60
2022/11/07 07:56:06;;;;;;;5.33;4.53;;;;;;;7.45;100.00;96914.63;5071412;28;20618;-59
2022/11/07 07:58:33;;;;;;;4.23;3.90;;;;;;;7.50;100.00;96909.84;5071011;28;20194;-58
2022/11/07 08:00:59;;;;;;;4.57;3.93;;;;;;;7.58;100.00;96903.16;5071202;28;20195;-58
2022/11/07 08:03:27;;;;;;;4.40;3.77;;;;;;;7.66;100.00;96911.28;5071122;28;20242;-59
2022/11/07 08:05:56;;;;;;;5.83;4.30;;;;;;;7.74;100.00;96906.25;5070581;28;20271;-60
2022/11/07 08:08:23;;;;;;;6.27;4.87;;;;;;;7.82;100.00;96903.88;5071064;28;20220;-59
2022/11/07 08:10:53;;;;;;;4.60;4.20;;;;;;;7.93;100.00;96907.38;5070529;28;20301;-60
2022/11/07 08:13:21;;;;;;;4.97;3.83;;;;;;;8.05;100.00;96912.59;5071204;28;20199;-59
2022/11/07 08:15:48;;;;;;;4.23;3.80;;;;;;;8.14;100.00;96914.53;5070678;28;20317;-60
2022/11/07 08:18:15;;;;;;;4.20;3.80;;;;;;;8.21;100.00;96913.91;5070883;28;20512;-59
2022/11/07 08:20:42;;;;;;;4.57;4.17;;;;;;;8.33;100.00;96912.09;5070273;28;20377;-60
2022/11/07 08:23:10;;;;;;;4.93;3.80;;;;;;;8.46;100.00;96912.81;5070933;28;20420;-59
2022/11/07 08:25:37;;;;;;;4.40;4.00;;;;;;;8.55;100.00;96904.16;5070744;28;20236;-60
2022/11/07 08:28:06;;;;;;;4.43;3.87;;;;;;;8.68;100.00;96898.75;5075006;28;20210;-60
2022/11/07 08:30:32;;;;;;;4.33;3.90;;;;;;;8.81;100.00;96904.69;5080384;28;20213;-60
2022/11/07 08:33:00;;;;;;;4.10;3.80;;;;;;;8.90;100.00;96902.13;5073253;28;20226;-60
2022/11/07 08:35:27;;;;;;;4.27;3.87;;;;;;;9.04;100.00;96903.59;5072481;28;20321;-60
2022/11/07 08:37:53;;;;;;;4.20;3.80;;;;;;;9.14;100.00;96901.06;5072106;28;20222;-59
2022/11/07 08:40:22;;;;;;;5.17;4.00;;;;;;;9.21;100.00;96899.59;5073643;28;20561;-60
2022/11/07 08:42:49;;;;;;;7.03;4.40;;;;;;;9.34;100.00;96900.22;5076754;28;20285;-60
2022/11/07 08:45:15;;;;;;;5.30;4.90;;;;;;;9.44;100.00;96901.97;5076779;28;20627;-60
2022/11/07 08:47:42;;;;;;;5.67;4.80;;;;;;;9.58;100.00;96892.88;5073201;28;20305;-60
2022/11/07 08:50:09;;;;;;;5.17;4.67;;;;;;;9.93;100.00;96892.47;5077832;28;20250;-60
2022/11/07 08:52:36;;;;;;;4.63;4.23;;;;;;;10.41;100.00;96897.97;5084428;28;20222;-59
2022/11/07 08:55:04;;;;;;;4.43;4.13;;;;;;;10.85;100.00;96881.56;5082094;28;20268;-59
2022/11/07 08:57:32;;;;;;;5.57;4.13;;;;;;;11.25;100.00;96878.78;5082981;28;20238;-59
2022/11/07 08:59:59;;;;;;;3.70;3.40;;;;;;;11.57;100.00;96890.84;5081235;28;20644;-57
2022/11/07 09:02:26;;;;;;;2.60;2.40;;;;;;;11.99;100.00;96889.47;5075000;28;20230;-62
2022/11/07 09:04:53;;;;;;;2.33;2.23;;;;;;;12.38;96.73;96887.47;5075431;28;20206;-59
2022/11/07 09:07:19;;;;;;;1.80;1.70;;;;;;;12.77;94.89;96888.91;5074751;28;20650;-60
2022/11/07 09:09:46;;;;;;;1.63;1.53;;;;;;;13.20;91.07;96884.69;5081636;28;20237;-59
2022/11/07 09:12:13;;;;;;;3.03;1.60;;;;;;;13.47;81.46;96889.88;5083298;28;20266;-61
2022/11/07 09:14:41;;;;;;;3.13;1.40;;;;;;;13.61;74.64;96888.47;5078548;28;20286;-65
2022/11/07 09:17:08;;;;;;;1.87;1.60;;;;;;;13.91;76.04;96883.53;5076904;28;20291;-60
2022/11/07 09:19:34;;;;;;;1.50;1.40;;;;;;;14.21;76.34;96879.50;5074475;28;20624;-60
2022/11/07 09:22:01;;;;;;;1.45;1.30;;;;;;;14.38;74.52;96878.63;5074683;28;20286;-59
2022/11/07 09:24:28;;;;;;;1.48;1.38;;;;;;;14.62;76.28;96882.38;5074704;28;21475;-59
2022/11/07 09:26:55;;;;;;;1.35;1.20;;;;;;;14.90;75.31;96879.28;5074835;28;20260;-60
2022/11/07 09:29:22;;;;;;;1.20;1.20;;;;;;;15.20;72.82;96877.78;5074544;28;20194;-59
2022/11/07 09:31:50;;;;;;;1.45;1.30;;;;;;;15.35;64.19;96870.81;5073943;28;20198;-59
2022/11/07 09:34:17;;;;;;;2.63;1.55;;;;;;;15.58;66.15;96868.34;5074364;28;20237;-60
2022/11/07 09:36:44;;;;;;;1.33;1.20;;;;;;;15.75;68.16;96864.66;5074580;28;20646;-59
2022/11/07 09:39:10;;;;;;;1.60;1.50;;;;;;;15.91;67.10;96871.75;5074161;28;20344;-60
2022/11/07 09:41:48;;;;;;;4.45;1.65;;;;;;;16.02;63.59;96865.22;5074028;28;20613;-60
2022/11/07 09:44:29;;;;;;;2.15;1.33;;;;;;;16.15;65.58;96873.53;5074062;28;20218;-59
2022/11/07 09:47:00;;;;;;;1.30;1.20;;;;;;;16.07;63.66;96873.56;5074471;28;20289;-59
2022/11/07 09:49:29;;;;;;;1.60;1.50;;;;;;;16.31;64.70;96868.13;5073900;28;20245;-59
2022/11/07 09:51:59;;;;;;;1.02;1.02;;;;;;;16.47;67.08;96873.41;5073867;28;20194;-59
2022/11/07 09:54:28;;;;;;;1.85;1.10;;;;;;;16.71;65.66;96870.66;5073134;28;20226;-59
2022/11/07 09:56:56;;;;;;;2.53;1.67;;;;;;;16.82;60.61;96875.59;5074231;28;20289;-59
2022/11/07 09:59:27;;;;;;;1.10;1.10;;;;;;;16.93;59.76;96877.84;5073711;28;20647;-59
2022/11/07 10:01:54;;;;;;;1.52;1.38;;;;;;;16.99;56.83;96881.66;5074309;28;20274;-59
2022/11/07 10:04:23;;;;;;;1.80;1.30;;;;;;;17.14;58.43;96871.88;5072761;28;20203;-59
2022/11/07 10:06:54;;;;;;;2.30;1.42;;;;;;;17.09;59.67;96878.75;5073762;28;20203;-58
2022/11/07 10:09:27;;;;;;;1.70;1.23;;;;;;;17.08;60.14;96874.41;5074050;28;20237;-59
2022/11/07 10:12:01;;;;;;;2.75;1.23;;;;;;;16.97;58.46;96880.19;5073969;28;20297;-59
2022/11/07 10:14:34;;;;;;;2.03;1.00;;;;;;;16.87;59.59;96873.22;5072849;28;20635;-59
2022/11/07 10:17:09;;;;;;;1.10;1.00;;;;;;;16.96;58.48;96879.34;5073316;28;20278;-60
2022/11/07 10:19:49;;;;;;;1.52;1.17;;;;;;;16.97;59.74;96877.50;5073404;28;20602;-59
2022/11/07 10:22:25;;;;;;;1.85;1.33;;;;;;;17.05;60.96;96877.44;5075455;28;20241;-61
2022/11/07 10:25:05;;;;;;;1.67;1.40;;;;;;;17.04;61.63;96875.81;5077384;28;20273;-56
2022/11/07 10:27:32;;;;;;;1.30;1.20;;;;;;;16.89;61.74;96871.22;5078503;28;20202;-57
2022/11/07 10:29:59;;;;;;;2.33;1.35;;;;;;;17.19;60.99;96864.16;5073232;28;20336;-57
2022/11/07 10:32:32;;;;;;;3.58;1.45;;;;;;;17.24;59.66;96869.81;5072124;28;20285;-58
2022/11/07 10:35:15;;;;;;;1.42;1.20;;;;;;;17.32;60.07;96863.56;5072245;28;20669;-57
2022/11/07 10:37:42;;;;;;;1.60;1.42;;;;;;;17.43;59.36;96868.44;5071917;28;20515;-57
2022/11/07 10:40:14;;;;;;;1.48;1.20;;;;;;;17.45;57.21;96863.78;5071861;28;20662;-57
2022/11/07 10:42:42;;;;;;;1.80;1.30;;;;;;;17.54;58.61;96868.03;5072540;28;20694;-58
2022/11/07 10:45:12;;;;;;;1.17;0.82;;;;;;;17.69;57.37;96866.25;5072883;28;20624;-58
2022/11/07 10:47:40;;;;;;;2.38;1.38;;;;;;;17.77;60.25;96863.50;5072628;28;20319;-57
2022/11/07 10:50:19;;;;;;;1.25;1.15;;;;;;;18.02;58.95;96855.22;5078270;28;20323;-58
2022/11/07 10:52:52;;;;;;;2.30;0.85;;;;;;;18.10;57.61;96855.16;5089854;28;20195;-58
2022/11/07 10:55:19;;;;;;;2.05;1.30;;;;;;;17.99;57.47;96860.94;5090567;28;20214;-58
2022/11/07 10:57:51;;;;;;;1.63;1.30;;;;;;;17.83;57.83;96852.06;5084407;28;20210;-58
2022/11/07 11:00:22;;;;;;;1.00;1.00;;;;;;;17.58;57.18;96858.66;5077598;28;20623;-57
2022/11/07 11:02:49;;;;;;;3.75;3.45;;;;;;;17.64;59.55;96851.78;5075586;28;20307;-58
2022/11/07 11:05:22;;;;;;;2.35;1.75;;;;;;;17.73;58.62;96850.69;5073018;28;20234;-57
2022/11/07 11:07:49;;;;;;;2.25;1.08;;;;;;;17.71;58.41;96852.72;5071850;28;20202;-57
2022/11/07 11:10:19;;;;;;;1.30;1.20;;;;;;;17.77;58.54;96844.78;5071950;28;20329;-57
2022/11/07 11:12:48;;;;;;;1.75;1.20;;;;;;;17.70;58.07;96846.53;5071991;28;20225;-57
2022/11/07 11:15:17;;;;;;;1.10;1.00;;;;;;;17.75;59.18;96841.44;5072485;28;20226;-58
2022/11/07 11:17:44;;;;;;;1.80;1.50;;;;;;;17.82;60.46;96842.38;5073086;28;20309;-58
2022/11/07 11:20:35;;;;;;;2.50;1.23;;;;;;;17.74;57.62;96838.97;5073554;28;20591;-57
2022/11/07 11:23:04;;;;;;;2.92;1.10;;;;;;;17.78;59.14;96829.56;5072628;28;20344;-58
2022/11/07 11:25:31;;;;;;;1.63;1.50;;;;;;;17.87;59.30;96831.13;5073577;28;20206;-58
2022/11/07 11:28:04;;;;;;;2.00;1.30;;;;;;;17.83;55.83;96824.47;5072339;28;20199;-57
2022/11/07 11:30:32;;;;;;;1.40;1.30;;;;;;;17.86;58.01;96819.59;5073074;28;20714;-57
2022/11/07 11:33:06;;;;;;;1.10;1.00;;;;;;;17.89;60.08;96823.75;5071930;28;20207;-58
2022/11/07 11:35:39;;;;;;;2.85;1.20;;;;;;;17.97;59.66;96828.19;5072475;28;20229;-57
2022/11/07 11:38:13;;;;;;;1.27;1.10;;;;;;;17.90;58.81;96812.88;5072033;28;20305;-58
2022/11/07 11:40:40;;;;;;;2.13;0.93;;;;;;;18.01;58.47;96818.78;5071475;28;20197;-58
2022/11/07 11:43:18;;;;;;;1.40;1.23;;;;;;;17.73;58.27;96814.06;5073900;28;20234;-57
2022/11/07 11:45:59;;;;;;;1.10;0.93;;;;;;;17.71;58.84;96817.94;5071719;28;20218;-57
2022/11/07 11:48:29;;;;;;;1.38;0.90;;;;;;;17.77;59.92;96815.38;5071865;28;20206;-57